sensor_id;sensor_type;location;lat;lon;timestamp;P1;durP1;ratioP1;P2;durP2;ratioP2
50309;SDS011;36207;51.850;21.698;2022-10-31T00:01:09;19.50;;;12.10;;
50309;SDS011;36207;51.850;21.698;2022-10-31T00:03:41;19.20;;;12.00;;
50309;SDS011;36207;51.850;21.698;2022-10-31T00:06:08;19.60;;;11.60;;
50309;SDS011;36207;51.850;21.698;2022-10-31T00:08:34;19.20;;;11.70;;
50309;SDS011;36207;51.850;21.698;2022-10-31T00:11:00;18.70;;;11.40;;
50309;SDS011;36207;51.850;21.698;2022-10-31T00:13:26;17.30;;;11.30;;
50309;SDS011;36207;51.850;21.698;2022-10-31T00:15:53;18.10;;;11.10;;
50309;SDS011;36207;51.850;21.698;2022-10-31T00:18:19;16.60;;;10.90;;
50309;SDS011;36207;51.850;21.698;2022-10-31T00:20:45;19.70;;;11.10;;
50309;SDS011;36207;51.850;21.698;2022-10-31T00:23:11;17.80;;;11.10;;
50309;SDS011;36207;51.850;21.698;2022-10-31T00:25:38;18.50;;;11.30;;
50309;SDS011;36207;51.850;21.698;2022-10-31T00:28:06;16.30;;;10.40;;
50309;SDS011;36207;51.850;21.698;2022-10-31T00:30:34;17.40;;;9.80;;
50309;SDS011;36207;51.850;21.698;2022-10-31T00:33:05;16.60;;;9.80;;
50309;SDS011;36207;51.850;21.698;2022-10-31T00:35:31;16.40;;;10.30;;
50309;SDS011;36207;51.850;21.698;2022-10-31T00:37:58;18.90;;;10.90;;
50309;SDS011;36207;51.850;21.698;2022-10-31T00:40:24;17.50;;;10.30;;
50309;SDS011;36207;51.850;21.698;2022-10-31T00:42:50;16.70;;;11.00;;
50309;SDS011;36207;51.850;21.698;2022-10-31T00:45:17;19.20;;;11.60;;
50309;SDS011;36207;51.850;21.698;2022-10-31T00:47:43;16.70;;;10.50;;
50309;SDS011;36207;51.850;21.698;2022-10-31T00:50:09;18.60;;;11.10;;
50309;SDS011;36207;51.850;21.698;2022-10-31T00:52:35;18.40;;;11.20;;
50309;SDS011;36207;51.850;21.698;2022-10-31T00:55:01;17.60;;;11.30;;
50309;SDS011;36207;51.850;21.698;2022-10-31T00:57:27;20.90;;;11.40;;
50309;SDS011;36207;51.850;21.698;2022-10-31T00:59:53;18.30;;;11.70;;
50309;SDS011;36207;51.850;21.698;2022-10-31T01:02:19;20.70;;;12.10;;
50309;SDS011;36207;51.850;21.698;2022-10-31T01:04:45;17.70;;;11.00;;
50309;SDS011;36207;51.850;21.698;2022-10-31T01:07:12;17.00;;;11.00;;
50309;SDS011;36207;51.850;21.698;2022-10-31T01:09:39;16.70;;;10.90;;
50309;SDS011;36207;51.850;21.698;2022-10-31T01:12:05;17.20;;;11.10;;
50309;SDS011;36207;51.850;21.698;2022-10-31T01:14:32;17.00;;;10.90;;
50309;SDS011;36207;51.850;21.698;2022-10-31T01:16:58;17.90;;;10.70;;
50309;SDS011;36207;51.850;21.698;2022-10-31T01:19:24;17.50;;;10.10;;
50309;SDS011;36207;51.850;21.698;2022-10-31T01:21:53;17.50;;;10.20;;
50309;SDS011;36207;51.850;21.698;2022-10-31T01:24:20;15.60;;;9.30;;
50309;SDS011;36207;51.850;21.698;2022-10-31T01:26:46;16.20;;;9.40;;
50309;SDS011;36207;51.850;21.698;2022-10-31T01:29:12;15.20;;;9.70;;
50309;SDS011;36207;51.850;21.698;2022-10-31T01:31:39;14.70;;;10.10;;
50309;SDS011;36207;51.850;21.698;2022-10-31T01:34:05;15.50;;;10.00;;
50309;SDS011;36207;51.850;21.698;2022-10-31T01:36:34;19.10;;;10.90;;
50309;SDS011;36207;51.850;21.698;2022-10-31T01:39:03;17.40;;;10.50;;
50309;SDS011;36207;51.850;21.698;2022-10-31T01:41:34;17.80;;;11.80;;
50309;SDS011;36207;51.850;21.698;2022-10-31T01:44:46;17.00;;;11.40;;
50309;SDS011;36207;51.850;21.698;2022-10-31T01:46:53;16.50;;;11.10;;
50309;SDS011;36207;51.850;21.698;2022-10-31T01:49:28;18.60;;;10.90;;
50309;SDS011;36207;51.850;21.698;2022-10-31T01:52:04;19.30;;;11.30;;
50309;SDS011;36207;51.850;21.698;2022-10-31T01:54:37;17.90;;;11.00;;
50309;SDS011;36207;51.850;21.698;2022-10-31T01:57:06;17.40;;;10.50;;
50309;SDS011;36207;51.850;21.698;2022-10-31T01:59:37;16.30;;;10.70;;
50309;SDS011;36207;51.850;21.698;2022-10-31T02:02:07;17.40;;;10.00;;
50309;SDS011;36207;51.850;21.698;2022-10-31T02:04:34;15.70;;;10.40;;
50309;SDS011;36207;51.850;21.698;2022-10-31T02:07:02;17.50;;;10.00;;
50309;SDS011;36207;51.850;21.698;2022-10-31T02:09:33;17.20;;;10.30;;
50309;SDS011;36207;51.850;21.698;2022-10-31T02:12:02;17.40;;;10.30;;
50309;SDS011;36207;51.850;21.698;2022-10-31T02:14:29;16.10;;;10.60;;
50309;SDS011;36207;51.850;21.698;2022-10-31T02:16:57;14.90;;;10.40;;
50309;SDS011;36207;51.850;21.698;2022-10-31T02:19:41;13.90;;;9.30;;
50309;SDS011;36207;51.850;21.698;2022-10-31T02:24:58;15.40;;;10.50;;
50309;SDS011;36207;51.850;21.698;2022-10-31T02:33:43;18.10;;;10.20;;
50309;SDS011;36207;51.850;21.698;2022-10-31T02:41:56;15.90;;;9.40;;
50309;SDS011;36207;51.850;21.698;2022-10-31T02:47:24;14.10;;;9.70;;
50309;SDS011;36207;51.850;21.698;2022-10-31T02:49:54;14.00;;;9.60;;
50309;SDS011;36207;51.850;21.698;2022-10-31T02:52:29;13.10;;;8.80;;
50309;SDS011;36207;51.850;21.698;2022-10-31T02:54:57;15.00;;;9.80;;
50309;SDS011;36207;51.850;21.698;2022-10-31T02:57:28;14.50;;;9.40;;
50309;SDS011;36207;51.850;21.698;2022-10-31T02:59:59;15.90;;;9.80;;
50309;SDS011;36207;51.850;21.698;2022-10-31T03:10:56;12.80;;;8.70;;
50309;SDS011;36207;51.850;21.698;2022-10-31T03:13:47;16.00;;;9.30;;
50309;SDS011;36207;51.850;21.698;2022-10-31T03:16:45;12.70;;;8.90;;
50309;SDS011;36207;51.850;21.698;2022-10-31T03:19:15;15.50;;;8.20;;
50309;SDS011;36207;51.850;21.698;2022-10-31T03:22:37;15.00;;;8.40;;
50309;SDS011;36207;51.850;21.698;2022-10-31T03:24:48;13.50;;;8.70;;
50309;SDS011;36207;51.850;21.698;2022-10-31T03:27:18;13.60;;;7.90;;
50309;SDS011;36207;51.850;21.698;2022-10-31T03:29:50;12.80;;;8.90;;
50309;SDS011;36207;51.850;21.698;2022-10-31T03:32:24;12.20;;;8.40;;
50309;SDS011;36207;51.850;21.698;2022-10-31T03:35:01;12.60;;;8.50;;
50309;SDS011;36207;51.850;21.698;2022-10-31T03:37:31;15.20;;;8.70;;
50309;SDS011;36207;51.850;21.698;2022-10-31T03:40:00;13.00;;;8.70;;
50309;SDS011;36207;51.850;21.698;2022-10-31T03:42:30;12.10;;;8.10;;
50309;SDS011;36207;51.850;21.698;2022-10-31T03:45:01;12.40;;;8.00;;
50309;SDS011;36207;51.850;21.698;2022-10-31T03:47:32;11.50;;;7.90;;
50309;SDS011;36207;51.850;21.698;2022-10-31T03:50:04;12.50;;;8.40;;
50309;SDS011;36207;51.850;21.698;2022-10-31T03:55:17;13.40;;;8.60;;
50309;SDS011;36207;51.850;21.698;2022-10-31T04:00:28;12.10;;;8.20;;
50309;SDS011;36207;51.850;21.698;2022-10-31T04:03:09;13.40;;;8.60;;
50309;SDS011;36207;51.850;21.698;2022-10-31T04:05:38;13.50;;;8.40;;
50309;SDS011;36207;51.850;21.698;2022-10-31T04:08:08;12.50;;;8.70;;
50309;SDS011;36207;51.850;21.698;2022-10-31T04:10:38;13.10;;;8.80;;
50309;SDS011;36207;51.850;21.698;2022-10-31T04:13:07;13.70;;;8.80;;
50309;SDS011;36207;51.850;21.698;2022-10-31T04:15:37;16.30;;;9.90;;
50309;SDS011;36207;51.850;21.698;2022-10-31T04:18:06;14.70;;;9.60;;
50309;SDS011;36207;51.850;21.698;2022-10-31T04:20:37;14.40;;;9.60;;
50309;SDS011;36207;51.850;21.698;2022-10-31T04:23:05;13.20;;;8.50;;
50309;SDS011;36207;51.850;21.698;2022-10-31T04:25:45;14.30;;;8.90;;
50309;SDS011;36207;51.850;21.698;2022-10-31T04:28:11;12.30;;;8.20;;
50309;SDS011;36207;51.850;21.698;2022-10-31T04:30:37;12.60;;;8.70;;
50309;SDS011;36207;51.850;21.698;2022-10-31T04:33:03;13.80;;;9.00;;
50309;SDS011;36207;51.850;21.698;2022-10-31T04:35:29;15.10;;;8.60;;
50309;SDS011;36207;51.850;21.698;2022-10-31T04:37:55;14.30;;;8.60;;
50309;SDS011;36207;51.850;21.698;2022-10-31T04:40:21;14.60;;;8.50;;
50309;SDS011;36207;51.850;21.698;2022-10-31T04:42:47;12.00;;;7.90;;
50309;SDS011;36207;51.850;21.698;2022-10-31T04:45:13;13.50;;;9.00;;
50309;SDS011;36207;51.850;21.698;2022-10-31T04:47:40;15.10;;;9.50;;
50309;SDS011;36207;51.850;21.698;2022-10-31T04:50:06;20.50;;;12.80;;
50309;SDS011;36207;51.850;21.698;2022-10-31T04:52:32;20.80;;;11.80;;
50309;SDS011;36207;51.850;21.698;2022-10-31T04:55:05;20.60;;;10.20;;
50309;SDS011;36207;51.850;21.698;2022-10-31T04:57:32;15.10;;;10.00;;
50309;SDS011;36207;51.850;21.698;2022-10-31T05:00:05;14.50;;;9.00;;
50309;SDS011;36207;51.850;21.698;2022-10-31T05:02:32;12.80;;;8.40;;
50309;SDS011;36207;51.850;21.698;2022-10-31T05:04:58;13.30;;;8.40;;
50309;SDS011;36207;51.850;21.698;2022-10-31T05:07:25;14.60;;;8.40;;
50309;SDS011;36207;51.850;21.698;2022-10-31T05:09:51;14.10;;;9.10;;
50309;SDS011;36207;51.850;21.698;2022-10-31T05:12:17;18.00;;;9.40;;
50309;SDS011;36207;51.850;21.698;2022-10-31T05:14:43;17.30;;;9.80;;
50309;SDS011;36207;51.850;21.698;2022-10-31T05:17:09;15.40;;;10.10;;
50309;SDS011;36207;51.850;21.698;2022-10-31T05:19:35;18.80;;;11.20;;
50309;SDS011;36207;51.850;21.698;2022-10-31T05:22:01;18.20;;;10.60;;
50309;SDS011;36207;51.850;21.698;2022-10-31T05:24:27;18.80;;;10.80;;
50309;SDS011;36207;51.850;21.698;2022-10-31T05:26:53;17.10;;;10.10;;
50309;SDS011;36207;51.850;21.698;2022-10-31T05:29:20;16.10;;;10.00;;
50309;SDS011;36207;51.850;21.698;2022-10-31T05:31:46;22.00;;;10.90;;
50309;SDS011;36207;51.850;21.698;2022-10-31T05:34:12;17.00;;;11.00;;
50309;SDS011;36207;51.850;21.698;2022-10-31T05:36:38;17.40;;;9.90;;
50309;SDS011;36207;51.850;21.698;2022-10-31T05:39:04;18.10;;;9.70;;
50309;SDS011;36207;51.850;21.698;2022-10-31T05:41:30;21.10;;;11.40;;
50309;SDS011;36207;51.850;21.698;2022-10-31T05:43:56;18.20;;;11.50;;
50309;SDS011;36207;51.850;21.698;2022-10-31T05:46:22;21.10;;;11.50;;
50309;SDS011;36207;51.850;21.698;2022-10-31T05:48:49;15.50;;;10.30;;
50309;SDS011;36207;51.850;21.698;2022-10-31T05:51:15;16.60;;;11.00;;
50309;SDS011;36207;51.850;21.698;2022-10-31T05:53:41;16.10;;;10.20;;
50309;SDS011;36207;51.850;21.698;2022-10-31T05:56:07;14.30;;;10.20;;
50309;SDS011;36207;51.850;21.698;2022-10-31T05:58:33;16.60;;;10.60;;
50309;SDS011;36207;51.850;21.698;2022-10-31T06:00:59;16.90;;;10.60;;
50309;SDS011;36207;51.850;21.698;2022-10-31T06:03:25;15.90;;;10.00;;
50309;SDS011;36207;51.850;21.698;2022-10-31T06:05:51;15.10;;;10.50;;
50309;SDS011;36207;51.850;21.698;2022-10-31T06:08:17;16.60;;;10.50;;
50309;SDS011;36207;51.850;21.698;2022-10-31T06:10:44;17.90;;;11.20;;
50309;SDS011;36207;51.850;21.698;2022-10-31T06:13:10;18.60;;;12.00;;
50309;SDS011;36207;51.850;21.698;2022-10-31T06:15:36;17.40;;;11.10;;
50309;SDS011;36207;51.850;21.698;2022-10-31T06:18:03;23.70;;;12.90;;
50309;SDS011;36207;51.850;21.698;2022-10-31T06:20:31;22.20;;;13.20;;
50309;SDS011;36207;51.850;21.698;2022-10-31T06:22:58;26.70;;;15.50;;
50309;SDS011;36207;51.850;21.698;2022-10-31T06:25:25;27.10;;;16.10;;
50309;SDS011;36207;51.850;21.698;2022-10-31T06:27:52;32.50;;;17.30;;
50309;SDS011;36207;51.850;21.698;2022-10-31T06:30:19;30.60;;;17.10;;
50309;SDS011;36207;51.850;21.698;2022-10-31T06:32:45;28.50;;;15.70;;
50309;SDS011;36207;51.850;21.698;2022-10-31T06:35:12;26.70;;;14.70;;
50309;SDS011;36207;51.850;21.698;2022-10-31T06:37:38;22.70;;;13.90;;
50309;SDS011;36207;51.850;21.698;2022-10-31T06:40:04;24.40;;;14.10;;
50309;SDS011;36207;51.850;21.698;2022-10-31T06:42:31;22.30;;;13.30;;
50309;SDS011;36207;51.850;21.698;2022-10-31T06:44:57;20.90;;;12.60;;
50309;SDS011;36207;51.850;21.698;2022-10-31T06:47:23;22.00;;;13.50;;
50309;SDS011;36207;51.850;21.698;2022-10-31T06:49:49;21.90;;;12.90;;
50309;SDS011;36207;51.850;21.698;2022-10-31T06:52:16;22.90;;;13.90;;
50309;SDS011;36207;51.850;21.698;2022-10-31T06:54:42;22.70;;;14.50;;
50309;SDS011;36207;51.850;21.698;2022-10-31T06:57:08;29.80;;;17.30;;
50309;SDS011;36207;51.850;21.698;2022-10-31T06:59:34;21.10;;;13.80;;
50309;SDS011;36207;51.850;21.698;2022-10-31T07:02:00;20.50;;;14.10;;
50309;SDS011;36207;51.850;21.698;2022-10-31T07:04:26;21.10;;;13.80;;
50309;SDS011;36207;51.850;21.698;2022-10-31T07:06:52;22.10;;;14.90;;
50309;SDS011;36207;51.850;21.698;2022-10-31T07:09:19;18.70;;;13.10;;
50309;SDS011;36207;51.850;21.698;2022-10-31T07:11:45;19.40;;;13.30;;
50309;SDS011;36207;51.850;21.698;2022-10-31T07:14:14;21.60;;;13.40;;
50309;SDS011;36207;51.850;21.698;2022-10-31T07:16:43;22.10;;;13.70;;
50309;SDS011;36207;51.850;21.698;2022-10-31T07:19:18;19.80;;;13.80;;
50309;SDS011;36207;51.850;21.698;2022-10-31T07:21:47;20.80;;;14.60;;
50309;SDS011;36207;51.850;21.698;2022-10-31T07:24:15;22.70;;;13.20;;
50309;SDS011;36207;51.850;21.698;2022-10-31T07:26:43;20.70;;;12.10;;
50309;SDS011;36207;51.850;21.698;2022-10-31T07:29:11;16.80;;;12.30;;
50309;SDS011;36207;51.850;21.698;2022-10-31T07:31:38;19.40;;;12.40;;
50309;SDS011;36207;51.850;21.698;2022-10-31T07:34:04;20.40;;;13.00;;
50309;SDS011;36207;51.850;21.698;2022-10-31T07:36:30;16.60;;;11.90;;
50309;SDS011;36207;51.850;21.698;2022-10-31T07:38:56;18.90;;;11.70;;
50309;SDS011;36207;51.850;21.698;2022-10-31T07:41:25;18.90;;;12.00;;
50309;SDS011;36207;51.850;21.698;2022-10-31T07:43:51;18.90;;;12.50;;
50309;SDS011;36207;51.850;21.698;2022-10-31T07:46:17;17.40;;;11.70;;
50309;SDS011;36207;51.850;21.698;2022-10-31T07:48:43;18.50;;;11.40;;
50309;SDS011;36207;51.850;21.698;2022-10-31T07:51:09;21.30;;;11.70;;
50309;SDS011;36207;51.850;21.698;2022-10-31T07:53:36;17.50;;;11.00;;
50309;SDS011;36207;51.850;21.698;2022-10-31T07:56:02;20.00;;;11.90;;
50309;SDS011;36207;51.850;21.698;2022-10-31T07:58:28;19.20;;;10.70;;
50309;SDS011;36207;51.850;21.698;2022-10-31T08:00:54;17.50;;;11.00;;
50309;SDS011;36207;51.850;21.698;2022-10-31T08:03:20;17.40;;;11.40;;
50309;SDS011;36207;51.850;21.698;2022-10-31T08:05:46;18.10;;;11.30;;
50309;SDS011;36207;51.850;21.698;2022-10-31T08:08:13;18.60;;;11.50;;
50309;SDS011;36207;51.850;21.698;2022-10-31T08:10:40;17.10;;;11.20;;
50309;SDS011;36207;51.850;21.698;2022-10-31T08:13:08;16.80;;;11.00;;
50309;SDS011;36207;51.850;21.698;2022-10-31T08:15:35;16.30;;;10.60;;
50309;SDS011;36207;51.850;21.698;2022-10-31T08:18:05;18.20;;;10.70;;
50309;SDS011;36207;51.850;21.698;2022-10-31T08:20:32;17.10;;;10.80;;
50309;SDS011;36207;51.850;21.698;2022-10-31T08:23:00;17.00;;;11.40;;
50309;SDS011;36207;51.850;21.698;2022-10-31T08:25:29;18.00;;;11.10;;
50309;SDS011;36207;51.850;21.698;2022-10-31T08:27:57;18.90;;;11.20;;
50309;SDS011;36207;51.850;21.698;2022-10-31T08:30:25;18.40;;;11.10;;
50309;SDS011;36207;51.850;21.698;2022-10-31T08:32:57;20.10;;;11.30;;
50309;SDS011;36207;51.850;21.698;2022-10-31T08:35:24;24.80;;;12.40;;
50309;SDS011;36207;51.850;21.698;2022-10-31T08:37:54;18.90;;;12.70;;
50309;SDS011;36207;51.850;21.698;2022-10-31T08:40:24;19.70;;;12.20;;
50309;SDS011;36207;51.850;21.698;2022-10-31T08:42:55;21.10;;;12.70;;
50309;SDS011;36207;51.850;21.698;2022-10-31T08:45:32;24.20;;;12.20;;
50309;SDS011;36207;51.850;21.698;2022-10-31T08:48:00;17.20;;;11.90;;
50309;SDS011;36207;51.850;21.698;2022-10-31T08:50:29;19.50;;;11.80;;
50309;SDS011;36207;51.850;21.698;2022-10-31T08:53:03;20.20;;;11.40;;
50309;SDS011;36207;51.850;21.698;2022-10-31T08:55:32;17.60;;;11.00;;
50309;SDS011;36207;51.850;21.698;2022-10-31T08:58:00;19.10;;;11.10;;
50309;SDS011;36207;51.850;21.698;2022-10-31T09:00:28;17.50;;;10.70;;
50309;SDS011;36207;51.850;21.698;2022-10-31T09:02:57;15.40;;;10.40;;
50309;SDS011;36207;51.850;21.698;2022-10-31T09:05:24;17.50;;;9.90;;
50309;SDS011;36207;51.850;21.698;2022-10-31T09:07:54;23.00;;;11.00;;
50309;SDS011;36207;51.850;21.698;2022-10-31T09:10:22;18.30;;;11.10;;
50309;SDS011;36207;51.850;21.698;2022-10-31T09:12:54;16.60;;;11.30;;
50309;SDS011;36207;51.850;21.698;2022-10-31T09:15:24;15.10;;;10.60;;
50309;SDS011;36207;51.850;21.698;2022-10-31T09:17:52;18.50;;;10.90;;
50309;SDS011;36207;51.850;21.698;2022-10-31T09:20:18;15.50;;;10.80;;
50309;SDS011;36207;51.850;21.698;2022-10-31T09:22:45;19.50;;;12.80;;
50309;SDS011;36207;51.850;21.698;2022-10-31T09:25:13;21.80;;;12.80;;
50309;SDS011;36207;51.850;21.698;2022-10-31T09:27:40;20.00;;;12.00;;
50309;SDS011;36207;51.850;21.698;2022-10-31T09:30:09;19.70;;;12.40;;
50309;SDS011;36207;51.850;21.698;2022-10-31T09:32:39;18.20;;;11.20;;
50309;SDS011;36207;51.850;21.698;2022-10-31T09:35:11;19.60;;;12.00;;
50309;SDS011;36207;51.850;21.698;2022-10-31T09:37:40;22.50;;;13.00;;
50309;SDS011;36207;51.850;21.698;2022-10-31T09:40:07;18.80;;;11.50;;
50309;SDS011;36207;51.850;21.698;2022-10-31T09:42:40;18.40;;;11.80;;
50309;SDS011;36207;51.850;21.698;2022-10-31T09:50:26;18.80;;;12.50;;
50309;SDS011;36207;51.850;21.698;2022-10-31T09:53:27;20.10;;;12.50;;
50309;SDS011;36207;51.850;21.698;2022-10-31T09:56:18;22.80;;;13.30;;
50309;SDS011;36207;51.850;21.698;2022-10-31T09:58:50;21.30;;;13.10;;
50309;SDS011;36207;51.850;21.698;2022-10-31T10:01:37;20.40;;;12.60;;
50309;SDS011;36207;51.850;21.698;2022-10-31T10:06:54;17.90;;;12.70;;
50309;SDS011;36207;51.850;21.698;2022-10-31T10:09:22;17.70;;;10.90;;
50309;SDS011;36207;51.850;21.698;2022-10-31T10:18:30;18.60;;;10.60;;
50309;SDS011;36207;51.850;21.698;2022-10-31T10:20:56;16.80;;;11.30;;
50309;SDS011;36207;51.850;21.698;2022-10-31T10:26:18;16.90;;;11.30;;
50309;SDS011;36207;51.850;21.698;2022-10-31T10:28:48;16.30;;;10.80;;
50309;SDS011;36207;51.850;21.698;2022-10-31T10:31:22;17.40;;;10.80;;
50309;SDS011;36207;51.850;21.698;2022-10-31T10:36:31;14.60;;;10.60;;
50309;SDS011;36207;51.850;21.698;2022-10-31T10:39:16;18.10;;;10.30;;
50309;SDS011;36207;51.850;21.698;2022-10-31T10:41:50;14.60;;;10.00;;
50309;SDS011;36207;51.850;21.698;2022-10-31T10:44:39;14.60;;;9.70;;
50309;SDS011;36207;51.850;21.698;2022-10-31T10:47:30;16.20;;;10.60;;
50309;SDS011;36207;51.850;21.698;2022-10-31T10:50:09;14.50;;;9.80;;
50309;SDS011;36207;51.850;21.698;2022-10-31T10:56:01;15.90;;;9.90;;
50309;SDS011;36207;51.850;21.698;2022-10-31T10:58:38;13.60;;;9.60;;
50309;SDS011;36207;51.850;21.698;2022-10-31T11:01:11;15.30;;;10.10;;
50309;SDS011;36207;51.850;21.698;2022-10-31T11:03:40;15.70;;;9.50;;
50309;SDS011;36207;51.850;21.698;2022-10-31T11:06:20;14.70;;;10.10;;
50309;SDS011;36207;51.850;21.698;2022-10-31T11:08:52;16.40;;;10.00;;
50309;SDS011;36207;51.850;21.698;2022-10-31T11:11:24;17.80;;;10.30;;
50309;SDS011;36207;51.850;21.698;2022-10-31T11:13:57;14.80;;;9.90;;
50309;SDS011;36207;51.850;21.698;2022-10-31T11:18:52;17.30;;;10.60;;
50309;SDS011;36207;51.850;21.698;2022-10-31T11:21:24;19.80;;;10.50;;
50309;SDS011;36207;51.850;21.698;2022-10-31T11:26:35;14.60;;;10.20;;
50309;SDS011;36207;51.850;21.698;2022-10-31T11:29:12;16.80;;;10.50;;
50309;SDS011;36207;51.850;21.698;2022-10-31T11:31:43;14.90;;;10.20;;
50309;SDS011;36207;51.850;21.698;2022-10-31T11:34:16;15.20;;;10.30;;
50309;SDS011;36207;51.850;21.698;2022-10-31T11:37:09;17.90;;;12.30;;
50309;SDS011;36207;51.850;21.698;2022-10-31T11:39:42;15.30;;;10.50;;
50309;SDS011;36207;51.850;21.698;2022-10-31T11:42:10;18.60;;;10.90;;
50309;SDS011;36207;51.850;21.698;2022-10-31T11:44:41;16.00;;;11.10;;
50309;SDS011;36207;51.850;21.698;2022-10-31T11:47:11;16.70;;;10.00;;
50309;SDS011;36207;51.850;21.698;2022-10-31T11:49:42;17.10;;;10.90;;
50309;SDS011;36207;51.850;21.698;2022-10-31T11:52:15;19.10;;;11.00;;
50309;SDS011;36207;51.850;21.698;2022-10-31T11:54:53;13.80;;;10.10;;
50309;SDS011;36207;51.850;21.698;2022-10-31T11:57:32;17.20;;;10.20;;
50309;SDS011;36207;51.850;21.698;2022-10-31T12:00:21;18.00;;;11.30;;
50309;SDS011;36207;51.850;21.698;2022-10-31T12:02:48;18.40;;;10.10;;
50309;SDS011;36207;51.850;21.698;2022-10-31T12:05:19;14.90;;;10.00;;
50309;SDS011;36207;51.850;21.698;2022-10-31T12:07:53;16.00;;;10.30;;
50309;SDS011;36207;51.850;21.698;2022-10-31T12:10:19;13.20;;;9.50;;
50309;SDS011;36207;51.850;21.698;2022-10-31T12:12:54;14.50;;;9.80;;
50309;SDS011;36207;51.850;21.698;2022-10-31T12:15:34;14.40;;;9.50;;
50309;SDS011;36207;51.850;21.698;2022-10-31T12:20:41;14.70;;;9.40;;
50309;SDS011;36207;51.850;21.698;2022-10-31T12:26:16;16.70;;;10.20;;
50309;SDS011;36207;51.850;21.698;2022-10-31T12:28:57;16.40;;;10.20;;
50309;SDS011;36207;51.850;21.698;2022-10-31T12:31:58;14.90;;;10.00;;
50309;SDS011;36207;51.850;21.698;2022-10-31T12:34:37;16.50;;;9.10;;
50309;SDS011;36207;51.850;21.698;2022-10-31T12:37:13;14.20;;;9.30;;
50309;SDS011;36207;51.850;21.698;2022-10-31T12:42:50;16.20;;;10.50;;
50309;SDS011;36207;51.850;21.698;2022-10-31T12:48:00;16.70;;;11.30;;
50309;SDS011;36207;51.850;21.698;2022-10-31T12:53:50;15.80;;;11.10;;
50309;SDS011;36207;51.850;21.698;2022-10-31T12:59:49;17.40;;;12.40;;
50309;SDS011;36207;51.850;21.698;2022-10-31T13:10:42;18.40;;;11.20;;
50309;SDS011;36207;51.850;21.698;2022-10-31T13:13:22;15.70;;;11.00;;
50309;SDS011;36207;51.850;21.698;2022-10-31T13:15:55;19.70;;;11.70;;
50309;SDS011;36207;51.850;21.698;2022-10-31T13:18:33;18.60;;;11.60;;
50309;SDS011;36207;51.850;21.698;2022-10-31T13:21:07;16.00;;;11.30;;
50309;SDS011;36207;51.850;21.698;2022-10-31T13:23:37;17.60;;;11.30;;
50309;SDS011;36207;51.850;21.698;2022-10-31T13:26:10;15.80;;;11.10;;
50309;SDS011;36207;51.850;21.698;2022-10-31T13:29:17;15.90;;;11.40;;
50309;SDS011;36207;51.850;21.698;2022-10-31T13:31:47;17.20;;;12.50;;
50309;SDS011;36207;51.850;21.698;2022-10-31T13:34:24;17.00;;;11.50;;
50309;SDS011;36207;51.850;21.698;2022-10-31T13:36:57;17.80;;;11.90;;
50309;SDS011;36207;51.850;21.698;2022-10-31T13:39:32;17.90;;;12.20;;
50309;SDS011;36207;51.850;21.698;2022-10-31T13:42:56;18.10;;;12.60;;
50309;SDS011;36207;51.850;21.698;2022-10-31T13:45:46;20.30;;;13.60;;
50309;SDS011;36207;51.850;21.698;2022-10-31T13:50:54;17.50;;;13.20;;
50309;SDS011;36207;51.850;21.698;2022-10-31T13:56:23;18.90;;;13.10;;
50309;SDS011;36207;51.850;21.698;2022-10-31T14:01:26;18.50;;;13.40;;
50309;SDS011;36207;51.850;21.698;2022-10-31T14:04:08;16.20;;;12.40;;
50309;SDS011;36207;51.850;21.698;2022-10-31T14:09:20;19.00;;;13.90;;
50309;SDS011;36207;51.850;21.698;2022-10-31T14:11:59;20.30;;;13.10;;
50309;SDS011;36207;51.850;21.698;2022-10-31T14:14:30;17.50;;;12.60;;
50309;SDS011;36207;51.850;21.698;2022-10-31T14:17:01;18.50;;;13.40;;
50309;SDS011;36207;51.850;21.698;2022-10-31T14:19:28;18.80;;;14.00;;
50309;SDS011;36207;51.850;21.698;2022-10-31T14:21:54;18.60;;;14.00;;
50309;SDS011;36207;51.850;21.698;2022-10-31T14:26:59;19.70;;;13.50;;
50309;SDS011;36207;51.850;21.698;2022-10-31T14:29:44;18.50;;;14.20;;
50309;SDS011;36207;51.850;21.698;2022-10-31T14:34:39;20.50;;;15.20;;
50309;SDS011;36207;51.850;21.698;2022-10-31T14:53:30;22.60;;;15.60;;
50309;SDS011;36207;51.850;21.698;2022-10-31T14:56:00;25.70;;;15.30;;
50309;SDS011;36207;51.850;21.698;2022-10-31T14:58:35;22.30;;;15.60;;
50309;SDS011;36207;51.850;21.698;2022-10-31T15:01:05;22.80;;;15.80;;
50309;SDS011;36207;51.850;21.698;2022-10-31T15:03:33;22.20;;;15.20;;
50309;SDS011;36207;51.850;21.698;2022-10-31T15:06:16;22.60;;;15.80;;
50309;SDS011;36207;51.850;21.698;2022-10-31T15:08:49;19.50;;;14.30;;
50309;SDS011;36207;51.850;21.698;2022-10-31T15:13:53;20.50;;;15.00;;
50309;SDS011;36207;51.850;21.698;2022-10-31T15:18:54;25.30;;;18.20;;
50309;SDS011;36207;51.850;21.698;2022-10-31T15:21:24;33.50;;;23.30;;
50309;SDS011;36207;51.850;21.698;2022-10-31T15:23:52;35.60;;;24.70;;
50309;SDS011;36207;51.850;21.698;2022-10-31T15:26:21;35.40;;;25.20;;
50309;SDS011;36207;51.850;21.698;2022-10-31T15:29:03;39.80;;;28.20;;
50309;SDS011;36207;51.850;21.698;2022-10-31T15:31:31;39.70;;;30.50;;
50309;SDS011;36207;51.850;21.698;2022-10-31T15:34:00;37.90;;;30.00;;
50309;SDS011;36207;51.850;21.698;2022-10-31T15:36:41;43.10;;;32.20;;
50309;SDS011;36207;51.850;21.698;2022-10-31T15:39:11;33.20;;;24.70;;
50309;SDS011;36207;51.850;21.698;2022-10-31T15:44:29;32.10;;;21.30;;
50309;SDS011;36207;51.850;21.698;2022-10-31T15:47:02;29.60;;;21.20;;
50309;SDS011;36207;51.850;21.698;2022-10-31T15:57:42;35.50;;;23.20;;
50309;SDS011;36207;51.850;21.698;2022-10-31T16:00:21;38.40;;;25.50;;
50309;SDS011;36207;51.850;21.698;2022-10-31T16:02:48;33.70;;;22.90;;
50309;SDS011;36207;51.850;21.698;2022-10-31T16:05:14;31.40;;;22.50;;
50309;SDS011;36207;51.850;21.698;2022-10-31T16:07:49;35.50;;;25.10;;
50309;SDS011;36207;51.850;21.698;2022-10-31T16:10:22;37.40;;;24.20;;
50309;SDS011;36207;51.850;21.698;2022-10-31T16:12:52;41.50;;;26.30;;
50309;SDS011;36207;51.850;21.698;2022-10-31T16:15:20;38.20;;;25.20;;
50309;SDS011;36207;51.850;21.698;2022-10-31T16:17:47;37.40;;;25.90;;
50309;SDS011;36207;51.850;21.698;2022-10-31T16:20:21;38.40;;;25.90;;
50309;SDS011;36207;51.850;21.698;2022-10-31T16:22:51;41.30;;;25.80;;
50309;SDS011;36207;51.850;21.698;2022-10-31T16:27:52;79.10;;;41.80;;
50309;SDS011;36207;51.850;21.698;2022-10-31T16:30:38;61.00;;;36.30;;
50309;SDS011;36207;51.850;21.698;2022-10-31T16:35:57;62.00;;;36.80;;
50309;SDS011;36207;51.850;21.698;2022-10-31T16:38:24;53.00;;;32.60;;
50309;SDS011;36207;51.850;21.698;2022-10-31T16:40:50;57.40;;;33.60;;
50309;SDS011;36207;51.850;21.698;2022-10-31T16:43:18;57.00;;;34.90;;
50309;SDS011;36207;51.850;21.698;2022-10-31T16:45:48;56.50;;;34.40;;
50309;SDS011;36207;51.850;21.698;2022-10-31T16:48:19;51.30;;;31.60;;
50309;SDS011;36207;51.850;21.698;2022-10-31T16:50:49;50.40;;;32.90;;